Time;durP1;ratioP1;P1;durP2;ratioP2;P2;SDS_P1;SDS_P2;PMS_P1;PMS_P2;Temp;Humidity;BMP_temperature;BMP_pressure;BME280_temperature;BME280_humidity;BME280_pressure;Samples;Min_cycle;Max_cycle;Signal;HPM_P1;HPM_P2
2023/07/23 00:01:19;;;;;;;6.53;3.80;;;14.10;99.90;;;;;;5025065;28;20041;-76
2023/07/23 00:03:44;;;;;;;7.75;4.32;;;14.10;99.90;;;;;;5031520;28;20112;-76
2023/07/23 00:06:10;;;;;;;7.20;4.28;;;14.10;99.90;;;;;;5031426;28;20045;-77
2023/07/23 00:08:35;;;;;;;7.13;3.83;;;14.20;99.90;;;;;;5027153;28;20104;-78
2023/07/23 00:11:01;;;;;;;6.32;4.07;;;14.20;99.90;;;;;;5012193;28;20044;-76
2023/07/23 00:13:27;;;;;;;7.88;4.10;;;14.20;99.90;;;;;;4995731;28;20042;-75
2023/07/23 00:15:53;;;;;;;5.75;4.00;;;14.20;99.90;;;;;;5028098;28;20048;-76
2023/07/23 00:18:18;;;;;;;8.25;4.40;;;14.10;99.90;;;;;;5031922;28;20415;-75
2023/07/23 00:20:44;;;;;;;7.00;4.32;;;14.20;99.90;;;;;;5016071;28;20046;-78
2023/07/23 00:23:10;;;;;;;8.23;4.88;;;14.20;99.90;;;;;;5012852;28;20125;-77
2023/07/23 00:25:35;;;;;;;7.05;4.13;;;14.20;99.90;;;;;;5048235;28;20041;-78
2023/07/23 00:28:01;;;;;;;6.93;4.53;;;14.20;99.90;;;;;;5032562;28;20052;-78
2023/07/23 00:30:26;;;;;;;7.53;4.80;;;14.20;99.90;;;;;;5048020;28;20050;-79
2023/07/23 00:32:52;;;;;;;7.50;4.60;;;14.20;99.90;;;;;;5023567;28;20459;-78
2023/07/23 00:35:20;;;;;;;9.02;5.68;;;14.20;99.90;;;;;;5038454;28;20467;-81
2023/07/23 00:37:46;;;;;;;9.30;5.43;;;14.20;99.90;;;;;;4994167;28;20486;-78
2023/07/23 00:40:12;;;;;;;7.97;4.97;;;14.20;99.90;;;;;;5017068;28;20068;-76
2023/07/23 00:42:37;;;;;;;9.15;5.53;;;14.20;99.90;;;;;;5008546;28;20081;-80
2023/07/23 00:45:03;;;;;;;8.68;5.00;;;14.20;99.90;;;;;;5022119;28;20497;-79
2023/07/23 00:47:29;;;;;;;7.20;4.68;;;14.20;99.90;;;;;;5020000;28;20486;-77
2023/07/23 00:49:55;;;;;;;8.23;5.22;;;14.20;99.90;;;;;;5024701;28;20042;-80
2023/07/23 00:52:21;;;;;;;7.55;4.25;;;14.20;99.90;;;;;;5018103;28;20120;-78
2023/07/23 00:54:47;;;;;;;7.63;4.57;;;14.20;99.90;;;;;;5017952;28;20038;-78
2023/07/23 00:57:13;;;;;;;11.30;4.72;;;14.20;99.90;;;;;;5018254;28;20060;-79
2023/07/23 00:59:40;;;;;;;8.77;4.80;;;14.20;99.90;;;;;;5010456;28;20103;-80
2023/07/23 01:02:06;;;;;;;6.68;4.22;;;14.20;99.90;;;;;;5031580;28;20436;-78
2023/07/23 01:04:33;;;;;;;7.18;4.45;;;14.20;99.90;;;;;;5023281;28;20064;-78
2023/07/23 01:07:02;;;;;;;9.60;4.05;;;14.20;99.90;;;;;;4995266;28;20453;-78
2023/07/23 01:09:29;;;;;;;7.25;4.72;;;14.20;99.90;;;;;;5011741;28;20441;-80
2023/07/23 01:11:56;;;;;;;7.22;3.88;;;14.20;99.90;;;;;;5026295;28;20056;-80
2023/07/23 01:14:22;;;;;;;8.43;4.28;;;14.20;99.90;;;;;;5031132;28;20042;-83
2023/07/23 01:16:48;;;;;;;7.10;4.28;;;14.10;99.90;;;;;;5016793;28;20046;-81
2023/07/23 01:19:15;;;;;;;8.88;4.45;;;14.10;99.90;;;;;;5017835;28;20139;-78
2023/07/23 01:21:40;;;;;;;8.65;4.65;;;14.10;99.90;;;;;;5018532;28;20041;-78
2023/07/23 01:24:06;;;;;;;7.47;4.07;;;14.10;99.90;;;;;;5032303;28;20044;-78
2023/07/23 01:26:32;;;;;;;7.65;4.28;;;14.10;99.90;;;;;;5029874;28;20045;-83
2023/07/23 01:28:57;;;;;;;8.68;4.82;;;14.00;99.90;;;;;;5027522;28;20133;-78
2023/07/23 01:31:23;;;;;;;9.63;4.55;;;14.00;99.90;;;;;;5034063;28;20496;-78
2023/07/23 01:33:50;;;;;;;7.78;4.70;;;14.00;99.90;;;;;;5027510;28;20045;-78
2023/07/23 01:36:16;;;;;;;8.23;5.10;;;14.00;99.90;;;;;;5016118;28;20128;-79
2023/07/23 01:38:42;;;;;;;10.85;4.60;;;14.00;99.90;;;;;;5017629;28;20038;-79
2023/07/23 01:41:08;;;;;;;8.20;4.60;;;13.90;99.90;;;;;;5004410;28;20128;-78
2023/07/23 01:43:34;;;;;;;7.38;4.82;;;14.00;99.90;;;;;;5029722;28;20072;-78
2023/07/23 01:46:00;;;;;;;7.38;4.35;;;14.00;99.90;;;;;;5035182;28;20033;-81
2023/07/23 01:48:26;;;;;;;9.15;4.78;;;14.00;99.90;;;;;;5016659;28;20383;-81
2023/07/23 01:50:51;;;;;;;8.48;5.03;;;14.00;99.90;;;;;;5017905;28;20121;-78
2023/07/23 01:53:17;;;;;;;7.97;5.13;;;14.00;99.90;;;;;;5014998;28;20475;-80
2023/07/23 01:55:43;;;;;;;8.27;4.55;;;14.00;99.90;;;;;;4998787;28;20033;-82
2023/07/23 01:58:08;;;;;;;6.78;4.45;;;13.90;99.90;;;;;;5022011;28;20180;-83
2023/07/23 02:00:34;;;;;;;9.15;4.78;;;13.90;99.90;;;;;;5015053;28;20061;-81
2023/07/23 02:03:00;;;;;;;7.63;4.95;;;13.90;99.90;;;;;;5021544;28;20096;-81
2023/07/23 02:05:26;;;;;;;7.63;4.40;;;13.90;99.90;;;;;;5024372;28;20128;-81
2023/07/23 02:07:51;;;;;;;7.60;4.80;;;13.80;99.90;;;;;;4998005;28;20042;-79
2023/07/23 02:10:19;;;;;;;8.48;4.70;;;13.90;99.90;;;;;;5015395;28;20048;-81
2023/07/23 02:12:45;;;;;;;7.57;4.40;;;13.90;99.90;;;;;;5013914;28;20048;-81
2023/07/23 02:15:11;;;;;;;9.30;4.75;;;13.90;99.90;;;;;;5028491;28;20041;-83
2023/07/23 02:17:37;;;;;;;9.48;4.75;;;13.90;99.90;;;;;;5032749;28;20041;-79
2023/07/23 02:20:04;;;;;;;6.88;4.43;;;13.90;99.90;;;;;;5032443;28;20092;-79
2023/07/23 02:22:30;;;;;;;7.38;4.22;;;13.90;99.90;;;;;;5029915;28;20092;-79
2023/07/23 02:24:55;;;;;;;6.63;4.53;;;13.90;99.90;;;;;;5014888;28;20426;-79
2023/07/23 02:27:21;;;;;;;7.97;4.63;;;13.90;99.90;;;;;;5017811;28;20044;-79
2023/07/23 02:29:47;;;;;;;7.85;4.95;;;13.90;99.90;;;;;;5033517;28;20042;-79
2023/07/23 02:32:13;;;;;;;10.82;4.60;;;13.90;99.90;;;;;;5049954;28;20501;-79
2023/07/23 02:34:38;;;;;;;9.35;5.13;;;13.90;99.90;;;;;;5027696;28;20073;-78
2023/07/23 02:37:04;;;;;;;8.25;4.93;;;13.90;99.90;;;;;;5015724;28;20042;-80
2023/07/23 02:39:32;;;;;;;8.65;5.22;;;13.90;99.90;;;;;;4998749;28;20029;-82
2023/07/23 02:41:58;;;;;;;7.82;4.90;;;13.90;99.90;;;;;;5032268;28;20363;-80
2023/07/23 02:44:24;;;;;;;10.45;5.32;;;13.90;99.90;;;;;;5034559;28;20167;-80
2023/07/23 02:46:49;;;;;;;8.07;4.50;;;13.90;99.90;;;;;;5034372;28;20470;-74
2023/07/23 02:49:15;;;;;;;9.05;4.53;;;13.90;99.90;;;;;;5033001;28;20050;-79
2023/07/23 02:51:41;;;;;;;8.50;4.85;;;13.90;99.90;;;;;;5017806;28;20081;-78
2023/07/23 02:54:08;;;;;;;9.82;5.15;;;14.00;99.90;;;;;;5014202;28;20049;-79
2023/07/23 02:56:35;;;;;;;7.82;4.80;;;13.90;99.90;;;;;;5014449;28;20109;-78
2023/07/23 02:59:02;;;;;;;8.02;4.88;;;13.90;99.90;;;;;;5031423;28;20057;-78
2023/07/23 03:01:29;;;;;;;9.90;4.95;;;13.90;99.90;;;;;;5021074;28;20068;-78
2023/07/23 03:03:54;;;;;;;9.57;4.80;;;14.00;99.90;;;;;;5014247;28;20440;-80
2023/07/23 03:06:20;;;;;;;7.63;4.90;;;13.90;99.90;;;;;;5002315;28;20069;-79
2023/07/23 03:08:46;;;;;;;8.40;5.20;;;13.90;99.90;;;;;;5028702;28;20092;-79
2023/07/23 03:11:12;;;;;;;8.18;4.90;;;13.90;99.90;;;;;;5024020;28;20091;-79
2023/07/23 03:13:37;;;;;;;8.88;5.18;;;13.90;99.90;;;;;;5016405;28;20451;-79
2023/07/23 03:16:04;;;;;;;8.80;5.07;;;13.90;99.90;;;;;;5029698;28;20073;-79
2023/07/23 03:18:30;;;;;;;9.13;5.43;;;14.00;99.90;;;;;;5032960;28;20084;-79
2023/07/23 03:20:55;;;;;;;8.95;4.85;;;14.00;99.90;;;;;;5032322;28;20077;-78
2023/07/23 03:23:21;;;;;;;10.32;5.00;;;13.90;99.90;;;;;;5014641;28;20139;-79
2023/07/23 03:25:47;;;;;;;8.15;4.60;;;14.00;99.90;;;;;;5012842;28;20046;-80
2023/07/23 03:28:12;;;;;;;11.10;5.03;;;14.00;99.90;;;;;;5012559;28;20082;-79
2023/07/23 03:30:38;;;;;;;10.48;6.13;;;14.00;99.90;;;;;;5012609;28;20042;-80
2023/07/23 03:33:04;;;;;;;8.55;5.32;;;14.00;99.90;;;;;;5013593;28;20398;-79
2023/07/23 03:35:29;;;;;;;8.50;5.05;;;14.00;99.90;;;;;;5013750;28;20095;-78
2023/07/23 03:37:55;;;;;;;7.80;5.53;;;14.00;99.90;;;;;;5028704;28;20466;-80
2023/07/23 03:40:21;;;;;;;8.63;5.35;;;14.00;99.90;;;;;;5022960;28;20080;-78
2023/07/23 03:42:46;;;;;;;8.52;5.30;;;14.00;99.90;;;;;;5021440;28;20050;-80
2023/07/23 03:45:12;;;;;;;7.82;5.15;;;14.00;99.90;;;;;;5006951;28;20045;-80
2023/07/23 03:47:38;;;;;;;10.85;5.65;;;14.00;99.90;;;;;;5031686;28;20041;-80
2023/07/23 03:50:04;;;;;;;8.93;5.10;;;14.00;99.90;;;;;;5028341;28;20064;-81
2023/07/23 03:52:29;;;;;;;10.68;6.13;;;14.10;99.90;;;;;;5035910;28;20064;-80
2023/07/23 03:54:55;;;;;;;8.13;5.30;;;14.00;99.90;;;;;;5033609;28;20038;-81
2023/07/23 03:57:21;;;;;;;8.30;5.18;;;14.00;99.90;;;;;;5015320;28;20169;-82
2023/07/23 03:59:47;;;;;;;7.50;5.35;;;14.10;99.90;;;;;;5021074;28;20081;-81
2023/07/23 04:02:13;;;;;;;8.52;5.30;;;14.10;99.90;;;;;;5013549;28;20034;-80
2023/07/23 04:04:39;;;;;;;8.48;5.38;;;14.10;99.90;;;;;;5012922;28;20054;-80
2023/07/23 04:07:06;;;;;;;10.25;5.50;;;14.10;99.90;;;;;;5011558;28;20041;-81
2023/07/23 04:09:32;;;;;;;7.40;4.80;;;14.10;99.90;;;;;;5019283;28;20467;-80
2023/07/23 04:11:58;;;;;;;7.07;4.82;;;14.10;99.90;;;;;;5014640;28;20040;-80
2023/07/23 04:14:24;;;;;;;7.65;5.05;;;14.10;99.90;;;;;;5011703;28;20050;-81
2023/07/23 04:16:50;;;;;;;8.57;6.03;;;14.10;99.90;;;;;;5020654;28;20493;-80
2023/07/23 04:19:16;;;;;;;8.63;4.82;;;14.20;99.90;;;;;;5011859;28;20037;-80
2023/07/23 04:21:42;;;;;;;8.43;5.45;;;14.20;99.90;;;;;;4995407;28;20049;-80
2023/07/23 04:24:08;;;;;;;9.13;5.03;;;14.20;99.90;;;;;;5014656;28;20042;-81
2023/07/23 04:26:33;;;;;;;7.75;5.05;;;14.20;99.90;;;;;;4999412;28;20081;-80
2023/07/23 04:29:00;;;;;;;8.65;5.38;;;14.20;99.90;;;;;;5032818;28;20052;-81
2023/07/23 04:31:26;;;;;;;9.13;5.15;;;14.20;99.90;;;;;;5025926;28;20426;-80
2023/07/23 04:33:52;;;;;;;7.90;5.00;;;14.20;99.90;;;;;;5012916;28;20103;-80
2023/07/23 04:36:18;;;;;;;7.38;5.45;;;14.20;99.90;;;;;;5013899;28;20038;-80
2023/07/23 04:38:44;;;;;;;8.93;5.53;;;14.20;99.90;;;;;;5015730;28;20041;-79
2023/07/23 04:41:10;;;;;;;9.80;5.45;;;14.30;99.90;;;;;;5025896;28;20037;-80
2023/07/23 04:43:37;;;;;;;10.95;5.25;;;14.30;99.90;;;;;;5032665;28;20065;-79
2023/07/23 04:46:04;;;;;;;9.43;5.20;;;14.30;99.90;;;;;;5030056;28;20450;-79
2023/07/23 04:48:31;;;;;;;10.02;6.03;;;14.30;99.90;;;;;;5007819;28;20131;-80
2023/07/23 04:50:58;;;;;;;9.40;5.53;;;14.30;99.90;;;;;;5045513;28;20100;-80
2023/07/23 04:53:24;;;;;;;7.72;5.00;;;14.30;99.90;;;;;;5021996;28;20045;-79
2023/07/23 04:55:54;;;;;;;10.52;6.00;;;14.30;99.90;;;;;;5015949;28;20360;-80
2023/07/23 04:58:20;;;;;;;8.60;5.15;;;14.30;99.90;;;;;;5017010;28;20044;-80
2023/07/23 05:00:46;;;;;;;9.75;5.93;;;14.30;99.90;;;;;;5026435;28;20140;-80
2023/07/23 05:03:12;;;;;;;9.38;6.00;;;14.30;99.90;;;;;;5019836;28;20132;-80
2023/07/23 05:05:52;;;;;;;10.05;5.47;;;14.30;99.90;;;;;;5014292;28;20128;-80
2023/07/23 05:08:19;;;;;;;9.70;5.45;;;14.30;99.90;;;;;;5034799;28;20503;-80
2023/07/23 05:10:45;;;;;;;8.90;5.28;;;14.30;99.90;;;;;;5017949;28;20037;-79
2023/07/23 05:13:12;;;;;;;8.48;5.40;;;14.30;99.90;;;;;;5051433;28;20057;-80
2023/07/23 05:15:38;;;;;;;9.82;5.70;;;14.40;99.90;;;;;;5053576;28;20487;-81
2023/07/23 05:18:03;;;;;;;8.18;5.43;;;14.40;99.90;;;;;;5038407;28;20034;-80
2023/07/23 05:20:29;;;;;;;7.15;5.10;;;14.40;99.90;;;;;;5036364;28;20033;-80
2023/07/23 05:22:55;;;;;;;8.90;5.32;;;14.40;99.90;;;;;;5029735;28;20038;-81
2023/07/23 05:25:21;;;;;;;8.98;5.75;;;14.40;99.90;;;;;;5027348;28;20048;-80
2023/07/23 05:27:46;;;;;;;7.30;4.80;;;14.40;99.90;;;;;;5015285;28;20033;-79
2023/07/23 05:30:14;;;;;;;9.77;6.00;;;14.40;99.90;;;;;;5016117;28;20038;-80
2023/07/23 05:32:39;;;;;;;8.77;5.45;;;14.40;99.90;;;;;;5030442;28;20041;-78
2023/07/23 05:35:05;;;;;;;8.25;5.10;;;14.50;99.90;;;;;;5034221;28;20374;-80
2023/07/23 05:37:31;;;;;;;9.57;5.05;;;14.40;99.90;;;;;;5018083;28;20080;-80
2023/07/23 05:39:57;;;;;;;10.50;5.85;;;14.50;99.90;;;;;;5001446;28;20142;-79
2023/07/23 05:42:22;;;;;;;7.95;5.75;;;14.50;99.90;;;;;;5051012;28;20247;-79
2023/07/23 05:44:50;;;;;;;8.10;5.40;;;14.60;99.90;;;;;;5026768;28;20053;-80
2023/07/23 05:47:15;;;;;;;9.45;5.97;;;14.60;99.90;;;;;;5025842;28;20474;-79
2023/07/23 05:49:41;;;;;;;8.25;5.30;;;14.60;99.90;;;;;;5034364;28;20044;-79
2023/07/23 05:52:07;;;;;;;7.00;5.32;;;14.60;99.90;;;;;;5034270;28;20482;-79
2023/07/23 05:54:33;;;;;;;7.95;5.38;;;14.60;99.90;;;;;;5033639;28;20037;-80
2023/07/23 05:56:59;;;;;;;8.65;5.60;;;14.70;99.90;;;;;;5035389;28;20041;-78
2023/07/23 05:59:25;;;;;;;8.27;5.60;;;14.70;99.90;;;;;;5050294;28;20107;-80
2023/07/23 06:01:52;;;;;;;8.38;5.40;;;14.70;99.90;;;;;;5051016;28;20478;-78
2023/07/23 06:04:17;;;;;;;9.40;6.10;;;14.80;99.90;;;;;;5033491;28;20125;-79
2023/07/23 06:06:43;;;;;;;7.93;5.32;;;14.80;99.90;;;;;;5034098;28;20081;-79
2023/07/23 06:09:10;;;;;;;11.98;5.75;;;14.90;99.90;;;;;;5022892;28;20042;-79
2023/07/23 06:11:36;;;;;;;8.18;4.95;;;14.90;99.90;;;;;;5025546;28;20053;-80
2023/07/23 06:14:02;;;;;;;8.18;5.22;;;15.00;99.90;;;;;;5035170;28;20044;-79
2023/07/23 06:16:30;;;;;;;7.72;5.43;;;15.00;99.90;;;;;;5030138;28;20399;-79
2023/07/23 06:18:56;;;;;;;8.27;5.68;;;15.10;99.90;;;;;;5017866;28;20045;-80
2023/07/23 06:21:21;;;;;;;7.60;5.72;;;15.10;99.90;;;;;;4997885;28;20374;-80
2023/07/23 06:23:47;;;;;;;9.57;5.82;;;15.20;99.90;;;;;;5019388;28;20041;-80
2023/07/23 06:26:13;;;;;;;6.97;4.97;;;15.20;99.90;;;;;;5025126;28;20047;-81
2023/07/23 06:28:39;;;;;;;9.93;5.70;;;15.20;99.90;;;;;;5004991;28;20502;-80
2023/07/23 06:31:05;;;;;;;7.38;5.25;;;15.20;99.90;;;;;;5024994;28;20092;-79
2023/07/23 06:33:30;;;;;;;10.18;6.13;;;15.30;99.90;;;;;;4997374;28;20053;-81
2023/07/23 06:35:56;;;;;;;13.23;6.05;;;15.40;99.90;;;;;;5031889;28;20119;-78
2023/07/23 06:38:22;;;;;;;8.13;5.40;;;15.40;99.90;;;;;;5025753;28;20498;-81
2023/07/23 06:40:52;;;;;;;10.25;5.55;;;15.50;99.90;;;;;;5025137;28;20068;-82
2023/07/23 06:43:19;;;;;;;7.72;5.35;;;15.60;99.90;;;;;;5024905;28;20386;-81
2023/07/23 06:45:46;;;;;;;9.40;5.70;;;15.60;99.90;;;;;;5013669;28;20041;-80
2023/07/23 06:48:12;;;;;;;8.55;5.25;;;15.70;99.90;;;;;;5022662;28;20041;-80
2023/07/23 06:50:38;;;;;;;8.27;5.47;;;15.70;99.90;;;;;;5023348;28;20045;-79
2023/07/23 06:53:07;;;;;;;7.72;5.25;;;15.80;99.90;;;;;;5013909;28;20038;-79
2023/07/23 06:55:56;;;;;;;7.68;5.53;;;15.80;99.90;;;;;;5013652;28;20041;-79
2023/07/23 06:58:22;;;;;;;8.02;5.60;;;15.90;99.90;;;;;;5015881;28;20390;-80
2023/07/23 07:00:48;;;;;;;9.00;5.13;;;15.90;99.90;;;;;;5016069;28;20047;-81
2023/07/23 07:03:14;;;;;;;7.53;4.30;;;16.00;99.90;;;;;;5031641;28;20474;-80
2023/07/23 07:05:40;;;;;;;9.10;5.45;;;16.00;99.90;;;;;;5027499;28;20054;-83
2023/07/23 07:08:05;;;;;;;10.70;5.47;;;16.00;99.90;;;;;;4997126;28;20064;-74
2023/07/23 07:10:31;;;;;;;8.38;5.38;;;16.10;99.90;;;;;;5027931;28;20060;-74
2023/07/23 07:12:57;;;;;;;7.75;4.97;;;16.10;99.90;;;;;;5020961;28;20091;-72
2023/07/23 07:15:22;;;;;;;8.38;5.18;;;16.10;99.90;;;;;;5025545;28;20033;-73
2023/07/23 07:17:48;;;;;;;9.10;5.72;;;16.10;99.90;;;;;;5029429;28;20390;-72
2023/07/23 07:20:14;;;;;;;8.10;5.60;;;16.10;99.90;;;;;;5028950;28;20041;-74
2023/07/23 07:22:39;;;;;;;8.23;5.75;;;16.10;99.90;;;;;;5011839;28;20049;-77
2023/07/23 07:25:06;;;;;;;8.23;5.90;;;16.10;99.90;;;;;;5016856;28;20073;-75
2023/07/23 07:27:31;;;;;;;8.73;6.05;;;16.10;99.90;;;;;;5026661;28;20051;-74
2023/07/23 07:29:57;;;;;;;8.93;5.50;;;16.10;99.90;;;;;;5027054;28;20386;-77
2023/07/23 07:32:23;;;;;;;9.52;5.80;;;16.10;99.90;;;;;;5028051;28;20042;-77
2023/07/23 07:34:48;;;;;;;8.57;5.90;;;16.20;99.90;;;;;;5019655;28;20038;-71
2023/07/23 07:37:14;;;;;;;10.80;5.95;;;16.20;99.90;;;;;;5015126;28;20034;-74
2023/07/23 07:39:40;;;;;;;10.93;5.47;;;16.10;99.90;;;;;;5027696;28;20041;-73
2023/07/23 07:42:07;;;;;;;9.88;6.05;;;16.10;99.90;;;;;;5037131;28;20041;-76
2023/07/23 07:44:32;;;;;;;9.10;5.78;;;16.10;99.90;;;;;;5037154;28;20095;-76
2023/07/23 07:46:58;;;;;;;8.90;6.07;;;16.10;99.90;;;;;;5014042;28;20049;-73
2023/07/23 07:49:24;;;;;;;9.65;5.60;;;16.10;99.90;;;;;;5020624;28;20034;-74
2023/07/23 07:51:50;;;;;;;9.60;6.30;;;16.10;99.90;;;;;;5029965;28;20179;-73
2023/07/23 07:54:16;;;;;;;9.30;5.53;;;16.10;99.90;;;;;;5029013;28;20494;-74
2023/07/23 07:56:43;;;;;;;8.77;5.65;;;16.00;99.90;;;;;;5018767;28;20045;-74
2023/07/23 07:59:12;;;;;;;8.52;5.30;;;15.90;99.90;;;;;;5044707;28;20045;-73
2023/07/23 08:01:38;;;;;;;11.20;5.80;;;15.90;99.90;;;;;;5012645;28;20133;-74
2023/07/23 08:04:07;;;;;;;8.98;6.35;;;15.90;99.90;;;;;;5023544;28;20073;-75
2023/07/23 08:06:38;;;;;;;10.25;5.65;;;15.80;99.90;;;;;;5028913;28;20037;-77
2023/07/23 08:09:04;;;;;;;9.45;6.35;;;15.80;99.90;;;;;;5023002;28;20033;-75
2023/07/23 08:11:30;;;;;;;8.98;5.60;;;15.70;99.90;;;;;;5018517;28;20125;-76
2023/07/23 08:13:57;;;;;;;10.75;6.40;;;15.60;99.90;;;;;;5014767;28;20046;-79
2023/07/23 08:16:23;;;;;;;10.75;6.13;;;15.60;99.90;;;;;;5013370;28;20045;-74
2023/07/23 08:18:49;;;;;;;10.55;6.47;;;15.50;99.90;;;;;;5030964;28;20124;-73
2023/07/23 08:21:15;;;;;;;13.05;7.15;;;15.50;99.90;;;;;;5020579;28;20037;-71
2023/07/23 08:23:41;;;;;;;10.98;6.32;;;15.50;99.90;;;;;;5016919;28;20041;-74
2023/07/23 08:26:08;;;;;;;9.82;6.00;;;15.50;99.90;;;;;;5015284;28;20485;-73
2023/07/23 08:28:39;;;;;;;10.32;6.25;;;15.40;99.90;;;;;;5012173;28;20042;-75
2023/07/23 08:31:05;;;;;;;9.38;5.85;;;15.40;99.90;;;;;;5017966;28;20111;-74
2023/07/23 08:33:32;;;;;;;8.98;5.90;;;15.40;99.90;;;;;;5025331;28;20049;-71
2023/07/23 08:36:00;;;;;;;10.48;6.50;;;15.40;99.90;;;;;;5042247;28;20367;-80
2023/07/23 08:38:27;;;;;;;9.05;5.72;;;15.40;99.90;;;;;;5005084;28;20099;-83
2023/07/23 08:41:02;;;;;;;9.05;5.65;;;15.40;99.90;;;;;;5022131;28;20045;-81
2023/07/23 08:43:37;;;;;;;9.30;5.97;;;15.40;99.90;;;;;;5020516;28;20128;-81
2023/07/23 08:46:20;;;;;;;7.90;5.78;;;15.40;99.90;;;;;;5013265;28;20073;-80
2023/07/23 08:48:55;;;;;;;8.20;5.95;;;15.40;99.90;;;;;;5020394;28;20100;-79
2023/07/23 08:51:25;;;;;;;8.40;5.72;;;15.40;99.90;;;;;;5011770;28;20042;-79
2023/07/23 08:53:52;;;;;;;9.70;5.90;;;15.50;99.90;;;;;;5002530;28;20096;-82
2023/07/23 08:56:18;;;;;;;7.65;5.65;;;15.50;99.90;;;;;;5029407;28;20046;-86
2023/07/23 08:58:45;;;;;;;9.57;5.50;;;15.50;99.90;;;;;;5020590;28;20045;-81
2023/07/23 09:01:16;;;;;;;9.65;6.05;;;15.50;99.90;;;;;;5013724;28;20110;-84
2023/07/23 09:03:42;;;;;;;9.55;5.82;;;15.50;99.90;;;;;;5034030;28;20054;-83
2023/07/23 09:06:09;;;;;;;9.93;5.85;;;15.50;99.90;;;;;;5024333;28;20175;-84
2023/07/23 09:08:36;;;;;;;8.30;5.57;;;15.50;99.90;;;;;;4999349;28;20087;-75
2023/07/23 09:11:04;;;;;;;7.78;5.72;;;15.50;99.90;;;;;;5016941;28;20057;-77
2023/07/23 09:13:37;;;;;;;9.52;6.00;;;15.50;99.90;;;;;;5032158;28;20049;-77
2023/07/23 09:16:06;;;;;;;7.75;5.80;;;15.50;99.90;;;;;;5011170;28;20045;-80
2023/07/23 09:18:39;;;;;;;8.45;5.57;;;15.40;99.90;;;;;;5033555;28;20046;-79
2023/07/23 09:21:06;;;;;;;8.45;5.55;;;15.50;99.90;;;;;;5015428;28;20045;-78
2023/07/23 09:23:33;;;;;;;7.82;5.25;;;15.50;99.90;;;;;;5001290;28;20076;-79
2023/07/23 09:26:00;;;;;;;9.55;5.80;;;15.50;99.90;;;;;;5025142;28;20352;-77
2023/07/23 09:28:26;;;;;;;7.60;5.25;;;15.50;99.90;;;;;;5011657;28;20475;-83
2023/07/23 09:30:56;;;;;;;9.18;5.32;;;15.50;99.90;;;;;;5041657;28;20500;-76
2023/07/23 09:33:34;;;;;;;8.85;5.28;;;15.50;99.90;;;;;;5011761;28;20470;-77
2023/07/23 09:36:02;;;;;;;8.07;5.50;;;15.50;99.90;;;;;;5028773;28;20038;-80
2023/07/23 09:38:28;;;;;;;8.05;5.30;;;15.50;99.90;;;;;;5019669;28;20056;-78
2023/07/23 09:40:55;;;;;;;6.70;5.55;;;15.50;99.90;;;;;;5014619;28;20038;-76
2023/07/23 09:43:21;;;;;;;7.75;5.30;;;15.50;99.90;;;;;;5041517;28;20045;-77
2023/07/23 09:45:47;;;;;;;7.07;5.38;;;15.50;99.90;;;;;;5019076;28;20042;-79
2023/07/23 09:48:17;;;;;;;7.28;5.38;;;15.50;99.90;;;;;;5042604;28;20049;-79
2023/07/23 09:50:44;;;;;;;8.40;5.60;;;15.50;99.90;;;;;;5034028;28;20053;-77
2023/07/23 09:53:12;;;;;;;7.20;5.25;;;15.50;99.90;;;;;;5030402;28;20481;-78
2023/07/23 09:55:39;;;;;;;8.65;5.45;;;15.50;99.90;;;;;;5039305;28;20042;-77
2023/07/23 09:58:06;;;;;;;8.07;5.28;;;15.50;99.90;;;;;;5028851;28;20042;-78
2023/07/23 10:00:33;;;;;;;6.53;4.72;;;15.60;99.90;;;;;;5015636;28;20049;-78
2023/07/23 10:03:00;;;;;;;7.60;4.78;;;15.60;99.90;;;;;;5047749;28;20050;-77
2023/07/23 10:05:28;;;;;;;6.13;4.75;;;15.60;99.90;;;;;;5029722;28;20049;-81
2023/07/23 10:07:54;;;;;;;5.90;4.10;;;15.60;99.90;;;;;;5015072;28;20038;-76
2023/07/23 10:10:20;;;;;;;6.53;4.50;;;15.70;99.90;;;;;;5026400;28;20041;-77
2023/07/23 10:12:46;;;;;;;6.03;4.25;;;15.70;99.90;;;;;;5033718;28;20052;-79
2023/07/23 10:15:12;;;;;;;6.40;4.55;;;15.70;99.90;;;;;;5015925;28;20042;-78
2023/07/23 10:17:41;;;;;;;5.40;3.90;;;15.70;99.90;;;;;;5018440;28;20042;-77
2023/07/23 10:20:10;;;;;;;5.80;4.10;;;15.80;99.90;;;;;;5013502;28;20045;-79
2023/07/23 10:22:37;;;;;;;5.32;4.22;;;15.80;99.90;;;;;;5036293;28;20041;-82
2023/07/23 10:25:25;;;;;;;4.97;4.05;;;15.90;99.90;;;;;;5016126;28;20046;-77
2023/07/23 10:27:59;;;;;;;5.45;3.78;;;15.90;99.90;;;;;;5017111;28;20092;-81
2023/07/23 10:30:26;;;;;;;5.13;3.50;;;15.90;99.90;;;;;;5022919;28;20041;-80
2023/07/23 10:33:28;;;;;;;6.20;3.72;;;15.90;99.90;;;;;;5033760;28;20067;-83
2023/07/23 10:35:54;;;;;;;4.82;3.78;;;15.90;99.90;;;;;;5013384;28;20054;-81
2023/07/23 10:38:25;;;;;;;6.82;3.88;;;15.90;99.90;;;;;;5025310;28;20056;-79
2023/07/23 10:40:51;;;;;;;6.85;4.00;;;15.90;99.90;;;;;;5026971;28;20041;-80
2023/07/23 10:43:17;;;;;;;5.40;3.90;;;16.00;99.90;;;;;;5025321;28;20433;-81
2023/07/23 10:46:05;;;;;;;6.15;4.50;;;16.00;99.90;;;;;;5017209;28;20089;-79
2023/07/23 10:48:39;;;;;;;6.03;4.28;;;16.00;99.90;;;;;;5030895;28;20216;-81
2023/07/23 10:51:12;;;;;;;5.55;4.10;;;16.00;99.90;;;;;;5023325;28;20112;-75
2023/07/23 10:54:06;;;;;;;5.75;4.13;;;16.10;99.90;;;;;;5020040;28;20402;-80
2023/07/23 10:56:33;;;;;;;6.53;4.03;;;16.10;99.90;;;;;;5018157;28;20045;-80
2023/07/23 10:59:08;;;;;;;6.80;4.03;;;16.10;99.90;;;;;;5017470;28;20056;-82
2023/07/23 11:01:35;;;;;;;5.78;4.30;;;16.10;99.90;;;;;;5016537;28;20083;-79
2023/07/23 11:04:12;;;;;;;6.68;4.63;;;16.10;99.90;;;;;;5037284;28;20041;-83
2023/07/23 11:06:52;;;;;;;6.45;4.32;;;16.10;99.90;;;;;;5021160;28;20050;-82
2023/07/23 11:09:24;;;;;;;6.22;3.60;;;16.20;99.90;;;;;;5033798;28;20394;-80
2023/07/23 11:11:51;;;;;;;6.70;4.75;;;16.20;99.90;;;;;;5022243;28;20181;-81
2023/07/23 11:14:21;;;;;;;5.90;4.05;;;16.10;99.90;;;;;;5014159;28;20487;-81
2023/07/23 11:16:49;;;;;;;5.43;3.75;;;16.10;99.90;;;;;;5020434;28;20045;-79
2023/07/23 11:19:18;;;;;;;6.82;4.70;;;16.20;99.90;;;;;;5025907;28;20382;-80
2023/07/23 11:21:49;;;;;;;5.88;4.07;;;16.20;99.90;;;;;;5012171;28;20049;-80
2023/07/23 11:24:19;;;;;;;6.40;4.10;;;16.20;99.90;;;;;;5030455;28;20056;-80
2023/07/23 11:26:45;;;;;;;6.65;4.50;;;16.20;99.90;;;;;;5011953;28;20045;-81
2023/07/23 11:29:12;;;;;;;6.00;4.32;;;16.20;99.90;;;;;;5012234;28;20084;-81
2023/07/23 11:31:38;;;;;;;6.72;4.47;;;16.20;99.90;;;;;;5029220;28;20470;-82
2023/07/23 11:34:05;;;;;;;7.72;4.30;;;16.30;99.90;;;;;;5020270;28;20445;-81
2023/07/23 11:36:36;;;;;;;7.78;4.63;;;16.30;99.90;;;;;;5022196;28;20075;-81
2023/07/23 11:39:02;;;;;;;7.55;4.72;;;16.30;99.90;;;;;;5032817;28;20041;-81
2023/07/23 11:41:33;;;;;;;6.47;4.35;;;16.30;99.90;;;;;;5018017;28;20422;-78
2023/07/23 11:44:03;;;;;;;5.80;4.13;;;16.30;99.90;;;;;;5020248;28;20176;-78
2023/07/23 11:46:31;;;;;;;5.95;4.03;;;16.40;99.90;;;;;;5033294;28;20061;-80
2023/07/23 11:48:58;;;;;;;5.82;4.00;;;16.40;99.90;;;;;;5036576;28;20038;-80
2023/07/23 11:51:24;;;;;;;5.57;3.55;;;16.40;99.90;;;;;;5035109;28;20053;-78
2023/07/23 11:53:54;;;;;;;5.50;3.80;;;16.40;99.90;;;;;;5016582;28;20030;-75
2023/07/23 11:56:23;;;;;;;6.30;4.07;;;16.40;99.90;;;;;;5033369;28;20034;-80
2023/07/23 11:58:49;;;;;;;8.02;3.67;;;16.40;99.90;;;;;;5031492;28;20062;-81
2023/07/23 12:01:15;;;;;;;4.78;3.72;;;16.40;99.90;;;;;;5021054;28;20123;-82
2023/07/23 12:03:43;;;;;;;5.97;3.85;;;16.40;99.90;;;;;;5017253;28;20138;-80
2023/07/23 12:06:14;;;;;;;5.07;3.45;;;16.40;99.90;;;;;;5015895;28;20100;-78
2023/07/23 12:08:42;;;;;;;4.82;3.42;;;16.50;99.90;;;;;;5016699;28;20042;-80
2023/07/23 12:11:12;;;;;;;5.43;3.95;;;16.50;99.90;;;;;;5017853;28;20073;-82
2023/07/23 12:13:52;;;;;;;6.20;3.83;;;16.40;99.90;;;;;;5019523;28;20039;-82
2023/07/23 12:16:42;;;;;;;5.38;3.72;;;16.50;99.90;;;;;;5032006;28;20053;-83
2023/07/23 12:19:13;;;;;;;4.70;3.10;;;16.40;99.90;;;;;;5016177;28;20424;-80
2023/07/23 12:21:41;;;;;;;6.68;3.58;;;16.40;99.90;;;;;;5013088;28;20042;-82
2023/07/23 12:24:22;;;;;;;5.50;3.30;;;16.40;99.90;;;;;;5028167;28;20060;-77
2023/07/23 12:26:56;;;;;;;4.72;3.28;;;16.40;99.90;;;;;;5014134;28;20429;-78
2023/07/23 12:29:24;;;;;;;4.20;2.97;;;16.50;99.90;;;;;;5016500;28;21240;-77
2023/07/23 12:32:11;;;;;;;4.22;3.10;;;16.50;99.90;;;;;;5029319;28;20049;-76
2023/07/23 12:34:40;;;;;;;5.30;3.00;;;16.50;99.90;;;;;;5028546;28;20378;-84
2023/07/23 12:37:07;;;;;;;4.45;2.92;;;16.50;99.90;;;;;;5012961;28;20046;-82
2023/07/23 12:39:33;;;;;;;4.00;3.00;;;16.50;99.90;;;;;;5030905;28;20516;-82
2023/07/23 12:41:59;;;;;;;4.53;2.80;;;16.60;99.90;;;;;;5016003;28;20371;-82
2023/07/23 12:44:26;;;;;;;3.35;2.53;;;16.60;99.90;;;;;;5017687;28;20116;-82
2023/07/23 12:46:52;;;;;;;3.63;2.25;;;16.60;99.90;;;;;;5023891;28;20045;-83